sensor_id;sensor_type;location;lat;lon;timestamp;P1;durP1;ratioP1;P2;durP2;ratioP2
56943;SDS011;42848;42.524;12.052;2023-05-10T00:01:22;10.85;;;7.60;;
56943;SDS011;42848;42.524;12.052;2023-05-10T00:03:48;10.23;;;7.88;;
56943;SDS011;42848;42.524;12.052;2023-05-10T00:06:14;9.65;;;7.35;;
56943;SDS011;42848;42.524;12.052;2023-05-10T00:08:40;9.00;;;7.20;;
56943;SDS011;42848;42.524;12.052;2023-05-10T00:11:06;9.90;;;6.95;;
56943;SDS011;42848;42.524;12.052;2023-05-10T00:13:32;10.88;;;7.22;;
56943;SDS011;42848;42.524;12.052;2023-05-10T00:15:57;8.60;;;6.80;;
56943;SDS011;42848;42.524;12.052;2023-05-10T00:18:23;9.15;;;6.90;;
56943;SDS011;42848;42.524;12.052;2023-05-10T00:20:48;8.68;;;6.05;;
56943;SDS011;42848;42.524;12.052;2023-05-10T00:23:14;9.15;;;5.93;;
56943;SDS011;42848;42.524;12.052;2023-05-10T00:25:40;9.82;;;6.70;;
56943;SDS011;42848;42.524;12.052;2023-05-10T00:28:06;9.18;;;6.18;;
56943;SDS011;42848;42.524;12.052;2023-05-10T00:30:31;9.05;;;6.05;;
56943;SDS011;42848;42.524;12.052;2023-05-10T00:32:57;8.25;;;5.82;;
56943;SDS011;42848;42.524;12.052;2023-05-10T00:35:22;8.45;;;6.20;;
56943;SDS011;42848;42.524;12.052;2023-05-10T00:37:48;7.88;;;5.57;;
56943;SDS011;42848;42.524;12.052;2023-05-10T00:40:14;8.20;;;5.55;;
56943;SDS011;42848;42.524;12.052;2023-05-10T00:42:40;7.75;;;6.28;;
56943;SDS011;42848;42.524;12.052;2023-05-10T00:45:06;7.43;;;5.50;;
56943;SDS011;42848;42.524;12.052;2023-05-10T00:47:33;7.63;;;5.82;;
56943;SDS011;42848;42.524;12.052;2023-05-10T00:49:59;7.55;;;5.47;;
56943;SDS011;42848;42.524;12.052;2023-05-10T00:52:28;10.65;;;6.07;;
56943;SDS011;42848;42.524;12.052;2023-05-10T00:54:55;7.78;;;5.78;;
56943;SDS011;42848;42.524;12.052;2023-05-10T00:57:22;7.97;;;5.95;;
56943;SDS011;42848;42.524;12.052;2023-05-10T00:59:48;8.13;;;5.63;;
56943;SDS011;42848;42.524;12.052;2023-05-10T01:02:14;7.40;;;5.60;;
56943;SDS011;42848;42.524;12.052;2023-05-10T01:04:39;7.13;;;5.57;;
56943;SDS011;42848;42.524;12.052;2023-05-10T01:07:06;8.93;;;6.05;;
56943;SDS011;42848;42.524;12.052;2023-05-10T01:09:31;8.10;;;5.68;;
56943;SDS011;42848;42.524;12.052;2023-05-10T01:11:59;8.20;;;5.65;;
56943;SDS011;42848;42.524;12.052;2023-05-10T01:14:26;7.78;;;5.78;;
56943;SDS011;42848;42.524;12.052;2023-05-10T01:16:53;7.43;;;5.70;;
56943;SDS011;42848;42.524;12.052;2023-05-10T01:19:23;9.85;;;5.68;;
56943;SDS011;42848;42.524;12.052;2023-05-10T01:25:14;7.78;;;5.90;;
56943;SDS011;42848;42.524;12.052;2023-05-10T01:41:30;8.77;;;6.03;;
56943;SDS011;42848;42.524;12.052;2023-05-10T01:47:06;7.45;;;6.05;;
56943;SDS011;42848;42.524;12.052;2023-05-10T01:49:43;10.27;;;6.07;;
56943;SDS011;42848;42.524;12.052;2023-05-10T01:52:15;8.60;;;5.90;;
56943;SDS011;42848;42.524;12.052;2023-05-10T01:54:48;8.30;;;6.00;;
56943;SDS011;42848;42.524;12.052;2023-05-10T01:57:18;7.60;;;5.80;;
56943;SDS011;42848;42.524;12.052;2023-05-10T01:59:48;9.68;;;6.65;;
56943;SDS011;42848;42.524;12.052;2023-05-10T02:02:16;8.60;;;6.32;;
56943;SDS011;42848;42.524;12.052;2023-05-10T02:04:43;8.93;;;6.63;;
56943;SDS011;42848;42.524;12.052;2023-05-10T02:07:11;8.43;;;6.88;;
56943;SDS011;42848;42.524;12.052;2023-05-10T02:09:39;8.65;;;6.75;;
56943;SDS011;42848;42.524;12.052;2023-05-10T02:12:07;8.55;;;6.60;;
56943;SDS011;42848;42.524;12.052;2023-05-10T02:14:35;7.63;;;6.18;;
56943;SDS011;42848;42.524;12.052;2023-05-10T02:17:02;9.20;;;6.80;;
56943;SDS011;42848;42.524;12.052;2023-05-10T02:19:31;9.35;;;6.75;;
56943;SDS011;42848;42.524;12.052;2023-05-10T02:21:59;8.32;;;6.53;;
56943;SDS011;42848;42.524;12.052;2023-05-10T02:24:27;8.38;;;6.68;;
56943;SDS011;42848;42.524;12.052;2023-05-10T02:26:54;8.32;;;6.47;;
56943;SDS011;42848;42.524;12.052;2023-05-10T02:29:22;8.75;;;6.38;;
56943;SDS011;42848;42.524;12.052;2023-05-10T02:31:51;10.18;;;6.82;;
56943;SDS011;42848;42.524;12.052;2023-05-10T02:34:19;9.80;;;6.72;;
56943;SDS011;42848;42.524;12.052;2023-05-10T02:36:47;9.02;;;6.78;;
56943;SDS011;42848;42.524;12.052;2023-05-10T02:39:14;20.23;;;7.10;;
56943;SDS011;42848;42.524;12.052;2023-05-10T02:41:41;10.02;;;6.72;;
56943;SDS011;42848;42.524;12.052;2023-05-10T02:44:08;10.60;;;6.60;;
56943;SDS011;42848;42.524;12.052;2023-05-10T02:46:35;10.77;;;6.95;;
56943;SDS011;42848;42.524;12.052;2023-05-10T02:49:02;10.27;;;7.00;;
56943;SDS011;42848;42.524;12.052;2023-05-10T02:51:30;9.35;;;6.80;;
56943;SDS011;42848;42.524;12.052;2023-05-10T02:54:00;10.35;;;6.88;;
56943;SDS011;42848;42.524;12.052;2023-05-10T02:56:33;9.13;;;6.73;;
56943;SDS011;42848;42.524;12.052;2023-05-10T02:59:01;8.07;;;6.45;;
56943;SDS011;42848;42.524;12.052;2023-05-10T03:01:27;9.75;;;6.88;;
56943;SDS011;42848;42.524;12.052;2023-05-10T03:03:53;10.23;;;7.38;;
56943;SDS011;42848;42.524;12.052;2023-05-10T03:06:18;11.43;;;7.00;;
56943;SDS011;42848;42.524;12.052;2023-05-10T03:08:44;10.48;;;7.15;;
56943;SDS011;42848;42.524;12.052;2023-05-10T03:11:23;9.20;;;6.75;;
56943;SDS011;42848;42.524;12.052;2023-05-10T03:14:10;9.48;;;7.13;;
56943;SDS011;42848;42.524;12.052;2023-05-10T03:16:46;8.43;;;7.10;;
56943;SDS011;42848;42.524;12.052;2023-05-10T03:19:22;9.55;;;7.00;;
56943;SDS011;42848;42.524;12.052;2023-05-10T03:21:53;10.15;;;7.50;;
56943;SDS011;42848;42.524;12.052;2023-05-10T03:24:22;9.43;;;7.25;;
56943;SDS011;42848;42.524;12.052;2023-05-10T03:26:52;9.80;;;7.43;;
56943;SDS011;42848;42.524;12.052;2023-05-10T03:29:25;9.77;;;7.22;;
56943;SDS011;42848;42.524;12.052;2023-05-10T03:31:53;10.38;;;7.38;;
56943;SDS011;42848;42.524;12.052;2023-05-10T03:34:23;10.18;;;7.35;;
56943;SDS011;42848;42.524;12.052;2023-05-10T03:36:49;10.27;;;7.57;;
56943;SDS011;42848;42.524;12.052;2023-05-10T03:39:15;10.20;;;7.65;;
56943;SDS011;42848;42.524;12.052;2023-05-10T03:41:40;9.90;;;7.43;;
56943;SDS011;42848;42.524;12.052;2023-05-10T03:44:06;10.48;;;8.02;;
56943;SDS011;42848;42.524;12.052;2023-05-10T03:46:32;9.90;;;7.57;;
56943;SDS011;42848;42.524;12.052;2023-05-10T03:48:57;9.82;;;7.30;;
56943;SDS011;42848;42.524;12.052;2023-05-10T03:51:23;10.43;;;7.63;;
56943;SDS011;42848;42.524;12.052;2023-05-10T03:53:53;9.85;;;7.65;;
56943;SDS011;42848;42.524;12.052;2023-05-10T03:56:20;9.50;;;7.45;;
56943;SDS011;42848;42.524;12.052;2023-05-10T03:58:46;10.48;;;7.40;;
56943;SDS011;42848;42.524;12.052;2023-05-10T04:01:12;10.23;;;7.82;;
56943;SDS011;42848;42.524;12.052;2023-05-10T04:03:38;10.38;;;7.50;;
56943;SDS011;42848;42.524;12.052;2023-05-10T04:06:04;11.13;;;7.43;;
56943;SDS011;42848;42.524;12.052;2023-05-10T04:08:31;10.05;;;7.70;;
56943;SDS011;42848;42.524;12.052;2023-05-10T04:11:06;9.68;;;7.38;;
56943;SDS011;42848;42.524;12.052;2023-05-10T04:13:33;11.30;;;7.63;;
56943;SDS011;42848;42.524;12.052;2023-05-10T04:15:58;9.82;;;7.53;;
56943;SDS011;42848;42.524;12.052;2023-05-10T04:18:24;11.10;;;7.80;;
56943;SDS011;42848;42.524;12.052;2023-05-10T04:20:50;10.35;;;7.40;;
56943;SDS011;42848;42.524;12.052;2023-05-10T04:23:16;10.57;;;7.05;;
56943;SDS011;42848;42.524;12.052;2023-05-10T04:25:42;10.18;;;7.38;;
56943;SDS011;42848;42.524;12.052;2023-05-10T04:28:08;9.32;;;6.97;;
56943;SDS011;42848;42.524;12.052;2023-05-10T04:30:34;9.77;;;7.43;;
56943;SDS011;42848;42.524;12.052;2023-05-10T04:33:00;15.45;;;7.72;;
56943;SDS011;42848;42.524;12.052;2023-05-10T04:35:27;16.75;;;8.23;;
56943;SDS011;42848;42.524;12.052;2023-05-10T04:37:53;13.18;;;7.68;;
56943;SDS011;42848;42.524;12.052;2023-05-10T04:40:19;10.98;;;6.80;;
56943;SDS011;42848;42.524;12.052;2023-05-10T04:42:46;10.02;;;6.85;;
56943;SDS011;42848;42.524;12.052;2023-05-10T04:45:11;10.68;;;6.88;;
56943;SDS011;42848;42.524;12.052;2023-05-10T04:47:39;9.35;;;6.47;;
56943;SDS011;42848;42.524;12.052;2023-05-10T04:50:05;11.05;;;6.80;;
56943;SDS011;42848;42.524;12.052;2023-05-10T04:52:32;9.65;;;7.05;;
56943;SDS011;42848;42.524;12.052;2023-05-10T04:54:58;9.20;;;6.80;;
56943;SDS011;42848;42.524;12.052;2023-05-10T04:57:23;9.63;;;6.43;;
56943;SDS011;42848;42.524;12.052;2023-05-10T04:59:49;8.48;;;5.40;;
56943;SDS011;42848;42.524;12.052;2023-05-10T05:02:16;8.40;;;5.57;;
56943;SDS011;42848;42.524;12.052;2023-05-10T05:04:41;7.65;;;5.45;;
56943;SDS011;42848;42.524;12.052;2023-05-10T05:07:07;8.32;;;5.70;;
56943;SDS011;42848;42.524;12.052;2023-05-10T05:09:32;7.45;;;5.60;;
56943;SDS011;42848;42.524;12.052;2023-05-10T05:11:58;7.35;;;5.30;;
56943;SDS011;42848;42.524;12.052;2023-05-10T05:14:24;7.72;;;5.38;;
56943;SDS011;42848;42.524;12.052;2023-05-10T05:16:50;8.13;;;5.03;;
56943;SDS011;42848;42.524;12.052;2023-05-10T05:19:17;6.90;;;4.75;;
56943;SDS011;42848;42.524;12.052;2023-05-10T05:21:42;6.22;;;4.97;;
56943;SDS011;42848;42.524;12.052;2023-05-10T05:24:08;7.60;;;4.65;;
56943;SDS011;42848;42.524;12.052;2023-05-10T05:26:35;6.55;;;4.88;;
56943;SDS011;42848;42.524;12.052;2023-05-10T05:29:02;6.15;;;4.97;;
56943;SDS011;42848;42.524;12.052;2023-05-10T05:31:28;6.70;;;5.10;;
56943;SDS011;42848;42.524;12.052;2023-05-10T05:33:54;7.43;;;5.22;;
56943;SDS011;42848;42.524;12.052;2023-05-10T05:36:20;7.13;;;4.80;;
56943;SDS011;42848;42.524;12.052;2023-05-10T05:38:46;8.07;;;5.53;;
56943;SDS011;42848;42.524;12.052;2023-05-10T05:41:12;10.45;;;5.68;;
56943;SDS011;42848;42.524;12.052;2023-05-10T05:43:37;7.60;;;5.35;;
56943;SDS011;42848;42.524;12.052;2023-05-10T05:46:03;7.00;;;5.13;;
56943;SDS011;42848;42.524;12.052;2023-05-10T05:48:31;8.48;;;6.65;;
56943;SDS011;42848;42.524;12.052;2023-05-10T05:50:57;6.45;;;5.00;;
56943;SDS011;42848;42.524;12.052;2023-05-10T05:53:23;7.00;;;4.68;;
56943;SDS011;42848;42.524;12.052;2023-05-10T05:55:56;7.60;;;4.88;;
56943;SDS011;42848;42.524;12.052;2023-05-10T06:00:49;9.93;;;5.70;;
56943;SDS011;42848;42.524;12.052;2023-05-10T06:03:17;7.18;;;5.65;;
56943;SDS011;42848;42.524;12.052;2023-05-10T06:05:44;8.02;;;5.57;;
56943;SDS011;42848;42.524;12.052;2023-05-10T06:08:09;9.38;;;7.25;;
56943;SDS011;42848;42.524;12.052;2023-05-10T06:10:35;10.20;;;8.38;;
56943;SDS011;42848;42.524;12.052;2023-05-10T06:13:02;9.65;;;7.90;;
56943;SDS011;42848;42.524;12.052;2023-05-10T06:15:28;9.88;;;7.50;;
56943;SDS011;42848;42.524;12.052;2023-05-10T06:17:53;8.82;;;6.07;;
56943;SDS011;42848;42.524;12.052;2023-05-10T06:20:19;9.65;;;6.63;;
56943;SDS011;42848;42.524;12.052;2023-05-10T06:22:44;8.50;;;5.93;;
56943;SDS011;42848;42.524;12.052;2023-05-10T06:25:10;8.95;;;5.88;;
56943;SDS011;42848;42.524;12.052;2023-05-10T06:27:36;8.60;;;5.65;;
56943;SDS011;42848;42.524;12.052;2023-05-10T06:30:02;9.55;;;6.22;;
56943;SDS011;42848;42.524;12.052;2023-05-10T06:32:29;9.32;;;6.18;;
56943;SDS011;42848;42.524;12.052;2023-05-10T06:34:55;9.85;;;7.07;;
56943;SDS011;42848;42.524;12.052;2023-05-10T06:37:21;10.10;;;6.18;;
56943;SDS011;42848;42.524;12.052;2023-05-10T06:39:46;6.90;;;5.10;;
56943;SDS011;42848;42.524;12.052;2023-05-10T06:42:12;8.38;;;5.43;;
56943;SDS011;42848;42.524;12.052;2023-05-10T06:44:38;11.95;;;5.10;;
56943;SDS011;42848;42.524;12.052;2023-05-10T06:47:03;6.47;;;4.47;;
56943;SDS011;42848;42.524;12.052;2023-05-10T06:49:29;6.97;;;4.47;;
56943;SDS011;42848;42.524;12.052;2023-05-10T06:51:55;6.85;;;4.35;;
56943;SDS011;42848;42.524;12.052;2023-05-10T06:54:21;6.05;;;4.18;;
56943;SDS011;42848;42.524;12.052;2023-05-10T06:56:48;6.50;;;4.50;;
56943;SDS011;42848;42.524;12.052;2023-05-10T06:59:14;6.80;;;5.20;;
56943;SDS011;42848;42.524;12.052;2023-05-10T07:01:41;13.50;;;8.82;;
56943;SDS011;42848;42.524;12.052;2023-05-10T07:04:08;6.88;;;4.55;;
56943;SDS011;42848;42.524;12.052;2023-05-10T07:06:33;6.60;;;3.85;;
56943;SDS011;42848;42.524;12.052;2023-05-10T07:08:59;5.55;;;3.90;;
56943;SDS011;42848;42.524;12.052;2023-05-10T07:11:25;7.47;;;3.70;;
56943;SDS011;42848;42.524;12.052;2023-05-10T07:13:51;6.60;;;3.58;;
56943;SDS011;42848;42.524;12.052;2023-05-10T07:16:17;5.25;;;3.00;;
56943;SDS011;42848;42.524;12.052;2023-05-10T07:18:43;6.05;;;3.20;;
56943;SDS011;42848;42.524;12.052;2023-05-10T07:21:09;7.70;;;3.40;;
56943;SDS011;42848;42.524;12.052;2023-05-10T07:23:34;5.68;;;3.20;;
56943;SDS011;42848;42.524;12.052;2023-05-10T07:26:00;5.53;;;2.97;;
56943;SDS011;42848;42.524;12.052;2023-05-10T07:28:27;5.55;;;3.22;;
56943;SDS011;42848;42.524;12.052;2023-05-10T07:30:53;5.32;;;3.42;;
56943;SDS011;42848;42.524;12.052;2023-05-10T07:33:18;6.10;;;3.60;;
56943;SDS011;42848;42.524;12.052;2023-05-10T07:35:44;6.35;;;3.45;;
56943;SDS011;42848;42.524;12.052;2023-05-10T07:38:10;4.70;;;2.90;;
56943;SDS011;42848;42.524;12.052;2023-05-10T07:40:36;6.60;;;3.58;;
56943;SDS011;42848;42.524;12.052;2023-05-10T07:43:03;4.68;;;3.05;;
56943;SDS011;42848;42.524;12.052;2023-05-10T07:45:29;5.45;;;3.10;;
56943;SDS011;42848;42.524;12.052;2023-05-10T07:47:54;5.13;;;3.03;;
56943;SDS011;42848;42.524;12.052;2023-05-10T07:50:20;5.05;;;3.28;;
56943;SDS011;42848;42.524;12.052;2023-05-10T07:52:47;4.15;;;2.88;;
56943;SDS011;42848;42.524;12.052;2023-05-10T07:55:13;3.97;;;2.80;;
56943;SDS011;42848;42.524;12.052;2023-05-10T07:57:39;5.40;;;4.07;;
56943;SDS011;42848;42.524;12.052;2023-05-10T08:00:05;3.70;;;2.70;;
56943;SDS011;42848;42.524;12.052;2023-05-10T08:02:34;5.90;;;3.00;;
56943;SDS011;42848;42.524;12.052;2023-05-10T08:05:00;4.97;;;2.90;;
56943;SDS011;42848;42.524;12.052;2023-05-10T08:07:26;4.05;;;2.95;;
56943;SDS011;42848;42.524;12.052;2023-05-10T08:09:52;4.15;;;2.60;;
56943;SDS011;42848;42.524;12.052;2023-05-10T08:12:18;4.10;;;2.97;;
56943;SDS011;42848;42.524;12.052;2023-05-10T08:14:43;3.53;;;2.53;;
56943;SDS011;42848;42.524;12.052;2023-05-10T08:17:09;4.93;;;2.83;;
56943;SDS011;42848;42.524;12.052;2023-05-10T08:19:34;4.97;;;2.92;;
56943;SDS011;42848;42.524;12.052;2023-05-10T08:22:00;5.30;;;3.33;;
56943;SDS011;42848;42.524;12.052;2023-05-10T08:24:26;4.85;;;3.08;;
56943;SDS011;42848;42.524;12.052;2023-05-10T08:26:51;5.32;;;3.10;;
56943;SDS011;42848;42.524;12.052;2023-05-10T08:29:17;4.78;;;3.00;;
56943;SDS011;42848;42.524;12.052;2023-05-10T08:31:42;4.70;;;3.13;;
56943;SDS011;42848;42.524;12.052;2023-05-10T08:34:08;6.82;;;3.20;;
56943;SDS011;42848;42.524;12.052;2023-05-10T08:36:33;5.22;;;2.00;;
56943;SDS011;42848;42.524;12.052;2023-05-10T08:38:59;3.47;;;2.10;;
56943;SDS011;42848;42.524;12.052;2023-05-10T08:41:25;3.67;;;2.20;;
56943;SDS011;42848;42.524;12.052;2023-05-10T08:43:54;3.08;;;2.13;;
56943;SDS011;42848;42.524;12.052;2023-05-10T08:46:21;6.07;;;2.10;;
56943;SDS011;42848;42.524;12.052;2023-05-10T08:48:48;3.80;;;2.13;;
56943;SDS011;42848;42.524;12.052;2023-05-10T08:51:18;2.65;;;1.80;;
56943;SDS011;42848;42.524;12.052;2023-05-10T08:53:47;3.33;;;2.08;;
56943;SDS011;42848;42.524;12.052;2023-05-10T08:56:13;3.38;;;1.60;;
56943;SDS011;42848;42.524;12.052;2023-05-10T08:58:40;2.95;;;1.92;;
56943;SDS011;42848;42.524;12.052;2023-05-10T09:01:06;4.63;;;1.80;;
56943;SDS011;42848;42.524;12.052;2023-05-10T09:03:33;3.45;;;1.80;;
56943;SDS011;42848;42.524;12.052;2023-05-10T09:06:03;5.18;;;2.15;;
56943;SDS011;42848;42.524;12.052;2023-05-10T09:08:30;2.42;;;1.67;;
56943;SDS011;42848;42.524;12.052;2023-05-10T09:10:56;4.28;;;1.80;;
56943;SDS011;42848;42.524;12.052;2023-05-10T09:13:23;3.83;;;1.77;;
56943;SDS011;42848;42.524;12.052;2023-05-10T09:15:51;3.80;;;1.70;;
56943;SDS011;42848;42.524;12.052;2023-05-10T09:18:18;2.67;;;1.52;;
56943;SDS011;42848;42.524;12.052;2023-05-10T09:20:43;2.50;;;1.50;;
56943;SDS011;42848;42.524;12.052;2023-05-10T09:23:09;3.83;;;2.78;;
56943;SDS011;42848;42.524;12.052;2023-05-10T09:25:35;4.63;;;3.00;;
56943;SDS011;42848;42.524;12.052;2023-05-10T09:28:03;4.05;;;2.83;;
56943;SDS011;42848;42.524;12.052;2023-05-10T09:30:32;4.20;;;2.00;;
56943;SDS011;42848;42.524;12.052;2023-05-10T09:32:58;3.88;;;2.00;;
56943;SDS011;42848;42.524;12.052;2023-05-10T09:35:25;2.55;;;1.70;;
56943;SDS011;42848;42.524;12.052;2023-05-10T09:37:53;3.42;;;1.70;;
56943;SDS011;42848;42.524;12.052;2023-05-10T09:40:21;2.67;;;1.50;;
56943;SDS011;42848;42.524;12.052;2023-05-10T09:45:20;3.28;;;1.63;;
56943;SDS011;42848;42.524;12.052;2023-05-10T09:47:47;3.55;;;1.70;;
56943;SDS011;42848;42.524;12.052;2023-05-10T09:50:13;2.80;;;1.70;;
56943;SDS011;42848;42.524;12.052;2023-05-10T09:52:52;4.43;;;1.60;;
56943;SDS011;42848;42.524;12.052;2023-05-10T09:55:19;4.85;;;1.85;;
56943;SDS011;42848;42.524;12.052;2023-05-10T09:57:49;2.95;;;1.70;;
56943;SDS011;42848;42.524;12.052;2023-05-10T10:00:23;2.80;;;1.70;;
56943;SDS011;42848;42.524;12.052;2023-05-10T10:02:59;3.45;;;2.25;;
56943;SDS011;42848;42.524;12.052;2023-05-10T10:05:34;5.88;;;2.10;;
56943;SDS011;42848;42.524;12.052;2023-05-10T10:08:04;3.53;;;2.03;;
56943;SDS011;42848;42.524;12.052;2023-05-10T10:10:31;2.95;;;1.73;;
56943;SDS011;42848;42.524;12.052;2023-05-10T10:12:58;3.20;;;1.60;;
56943;SDS011;42848;42.524;12.052;2023-05-10T10:15:25;3.72;;;1.90;;
56943;SDS011;42848;42.524;12.052;2023-05-10T10:17:51;2.85;;;1.70;;
56943;SDS011;42848;42.524;12.052;2023-05-10T10:20:19;3.03;;;1.52;;
56943;SDS011;42848;42.524;12.052;2023-05-10T10:22:46;2.90;;;1.65;;
56943;SDS011;42848;42.524;12.052;2023-05-10T10:25:13;3.10;;;1.50;;
56943;SDS011;42848;42.524;12.052;2023-05-10T10:36:14;4.45;;;2.30;;
56943;SDS011;42848;42.524;12.052;2023-05-10T10:47:07;3.10;;;2.10;;
56943;SDS011;42848;42.524;12.052;2023-05-10T10:52:27;2.95;;;1.60;;
56943;SDS011;42848;42.524;12.052;2023-05-10T10:57:28;3.10;;;1.83;;
56943;SDS011;42848;42.524;12.052;2023-05-10T11:08:28;2.97;;;2.05;;
56943;SDS011;42848;42.524;12.052;2023-05-10T11:16:13;4.18;;;2.10;;
56943;SDS011;42848;42.524;12.052;2023-05-10T11:18:39;3.57;;;2.50;;
56943;SDS011;42848;42.524;12.052;2023-05-10T11:21:07;4.25;;;2.35;;
56943;SDS011;42848;42.524;12.052;2023-05-10T11:26:13;5.60;;;2.70;;
56943;SDS011;42848;42.524;12.052;2023-05-10T11:28:43;5.05;;;2.78;;
56943;SDS011;42848;42.524;12.052;2023-05-10T11:31:10;5.38;;;3.00;;
56943;SDS011;42848;42.524;12.052;2023-05-10T11:33:44;5.88;;;2.65;;
56943;SDS011;42848;42.524;12.052;2023-05-10T11:36:14;4.67;;;2.53;;
56943;SDS011;42848;42.524;12.052;2023-05-10T11:38:41;6.25;;;3.00;;
56943;SDS011;42848;42.524;12.052;2023-05-10T11:41:10;5.90;;;2.58;;
56943;SDS011;42848;42.524;12.052;2023-05-10T11:43:40;4.13;;;2.45;;
56943;SDS011;42848;42.524;12.052;2023-05-10T11:46:07;4.82;;;2.53;;
56943;SDS011;42848;42.524;12.052;2023-05-10T11:48:37;3.80;;;2.50;;
56943;SDS011;42848;42.524;12.052;2023-05-10T11:51:05;3.65;;;2.28;;
56943;SDS011;42848;42.524;12.052;2023-05-10T11:53:32;6.32;;;2.83;;
56943;SDS011;42848;42.524;12.052;2023-05-10T11:56:08;7.10;;;4.45;;
56943;SDS011;42848;42.524;12.052;2023-05-10T11:58:35;9.63;;;5.70;;
56943;SDS011;42848;42.524;12.052;2023-05-10T12:01:03;6.38;;;3.95;;
56943;SDS011;42848;42.524;12.052;2023-05-10T12:03:30;6.22;;;3.75;;
56943;SDS011;42848;42.524;12.052;2023-05-10T12:05:57;5.85;;;3.10;;
56943;SDS011;42848;42.524;12.052;2023-05-10T12:08:24;4.93;;;3.00;;
56943;SDS011;42848;42.524;12.052;2023-05-10T12:10:52;7.20;;;3.95;;
56943;SDS011;42848;42.524;12.052;2023-05-10T12:13:19;6.53;;;4.22;;
56943;SDS011;42848;42.524;12.052;2023-05-10T12:15:46;7.68;;;4.05;;
56943;SDS011;42848;42.524;12.052;2023-05-10T12:18:12;5.70;;;3.20;;
56943;SDS011;42848;42.524;12.052;2023-05-10T12:20:40;6.47;;;4.03;;
56943;SDS011;42848;42.524;12.052;2023-05-10T12:23:08;5.43;;;3.50;;
56943;SDS011;42848;42.524;12.052;2023-05-10T12:25:38;4.78;;;3.03;;
56943;SDS011;42848;42.524;12.052;2023-05-10T12:28:06;5.40;;;3.30;;
56943;SDS011;42848;42.524;12.052;2023-05-10T12:30:34;5.20;;;3.50;;
56943;SDS011;42848;42.524;12.052;2023-05-10T12:33:01;4.78;;;3.00;;
56943;SDS011;42848;42.524;12.052;2023-05-10T12:35:32;5.10;;;3.08;;
56943;SDS011;42848;42.524;12.052;2023-05-10T12:37:59;4.55;;;2.85;;
56943;SDS011;42848;42.524;12.052;2023-05-10T12:40:25;4.63;;;3.17;;
56943;SDS011;42848;42.524;12.052;2023-05-10T12:42:50;5.75;;;3.78;;
56943;SDS011;42848;42.524;12.052;2023-05-10T12:45:17;6.78;;;2.97;;
56943;SDS011;42848;42.524;12.052;2023-05-10T12:47:43;4.47;;;2.70;;
56943;SDS011;42848;42.524;12.052;2023-05-10T12:50:09;4.43;;;3.08;;
56943;SDS011;42848;42.524;12.052;2023-05-10T12:52:35;6.13;;;3.20;;
56943;SDS011;42848;42.524;12.052;2023-05-10T12:55:01;5.03;;;3.00;;
56943;SDS011;42848;42.524;12.052;2023-05-10T12:57:28;7.53;;;3.85;;
56943;SDS011;42848;42.524;12.052;2023-05-10T12:59:54;6.68;;;3.70;;
56943;SDS011;42848;42.524;12.052;2023-05-10T13:02:20;6.68;;;3.13;;
56943;SDS011;42848;42.524;12.052;2023-05-10T13:04:46;5.57;;;4.00;;
56943;SDS011;42848;42.524;12.052;2023-05-10T13:07:13;7.05;;;3.42;;
56943;SDS011;42848;42.524;12.052;2023-05-10T13:09:38;5.32;;;2.72;;
56943;SDS011;42848;42.524;12.052;2023-05-10T13:12:04;4.68;;;3.10;;
56943;SDS011;42848;42.524;12.052;2023-05-10T13:14:30;6.15;;;2.70;;
56943;SDS011;42848;42.524;12.052;2023-05-10T13:16:56;4.38;;;2.70;;
56943;SDS011;42848;42.524;12.052;2023-05-10T13:19:22;6.10;;;2.95;;
56943;SDS011;42848;42.524;12.052;2023-05-10T13:21:48;6.35;;;2.75;;
56943;SDS011;42848;42.524;12.052;2023-05-10T13:24:13;4.53;;;2.78;;
56943;SDS011;42848;42.524;12.052;2023-05-10T13:26:39;6.78;;;2.90;;
56943;SDS011;42848;42.524;12.052;2023-05-10T13:29:06;4.32;;;2.80;;
56943;SDS011;42848;42.524;12.052;2023-05-10T13:31:33;6.70;;;3.00;;
56943;SDS011;42848;42.524;12.052;2023-05-10T13:33:59;5.63;;;2.67;;
56943;SDS011;42848;42.524;12.052;2023-05-10T13:36:25;4.90;;;2.60;;
56943;SDS011;42848;42.524;12.052;2023-05-10T13:38:51;8.57;;;3.97;;
56943;SDS011;42848;42.524;12.052;2023-05-10T13:41:17;7.75;;;4.03;;
56943;SDS011;42848;42.524;12.052;2023-05-10T13:43:43;6.38;;;3.10;;
56943;SDS011;42848;42.524;12.052;2023-05-10T13:46:09;5.05;;;2.70;;
56943;SDS011;42848;42.524;12.052;2023-05-10T13:48:34;4.30;;;2.70;;
56943;SDS011;42848;42.524;12.052;2023-05-10T13:51:02;5.85;;;3.13;;
56943;SDS011;42848;42.524;12.052;2023-05-10T13:53:29;4.43;;;2.60;;
56943;SDS011;42848;42.524;12.052;2023-05-10T13:55:55;5.28;;;2.50;;
56943;SDS011;42848;42.524;12.052;2023-05-10T13:58:20;7.30;;;3.25;;
56943;SDS011;42848;42.524;12.052;2023-05-10T14:00:46;7.45;;;3.97;;
56943;SDS011;42848;42.524;12.052;2023-05-10T14:03:12;7.45;;;3.42;;
56943;SDS011;42848;42.524;12.052;2023-05-10T14:05:37;8.02;;;3.50;;
56943;SDS011;42848;42.524;12.052;2023-05-10T14:08:03;5.57;;;2.80;;
56943;SDS011;42848;42.524;12.052;2023-05-10T14:10:29;5.25;;;2.80;;
56943;SDS011;42848;42.524;12.052;2023-05-10T14:12:55;5.72;;;2.53;;
56943;SDS011;42848;42.524;12.052;2023-05-10T14:15:21;7.50;;;2.83;;
56943;SDS011;42848;42.524;12.052;2023-05-10T14:17:46;4.78;;;2.80;;
56943;SDS011;42848;42.524;12.052;2023-05-10T14:20:12;5.25;;;2.92;;
56943;SDS011;42848;42.524;12.052;2023-05-10T14:22:38;5.40;;;2.70;;
56943;SDS011;42848;42.524;12.052;2023-05-10T14:25:04;5.72;;;2.80;;
56943;SDS011;42848;42.524;12.052;2023-05-10T14:27:29;6.15;;;2.83;;
56943;SDS011;42848;42.524;12.052;2023-05-10T14:29:55;7.60;;;2.88;;
56943;SDS011;42848;42.524;12.052;2023-05-10T14:32:21;7.25;;;2.70;;
56943;SDS011;42848;42.524;12.052;2023-05-10T14:34:46;8.65;;;2.90;;
56943;SDS011;42848;42.524;12.052;2023-05-10T14:37:13;10.13;;;5.10;;
56943;SDS011;42848;42.524;12.052;2023-05-10T14:39:40;9.00;;;4.30;;
56943;SDS011;42848;42.524;12.052;2023-05-10T14:42:07;7.03;;;3.63;;
56943;SDS011;42848;42.524;12.052;2023-05-10T14:44:33;6.05;;;3.50;;
56943;SDS011;42848;42.524;12.052;2023-05-10T14:46:59;6.80;;;3.40;;
56943;SDS011;42848;42.524;12.052;2023-05-10T14:49:24;6.70;;;3.05;;
56943;SDS011;42848;42.524;12.052;2023-05-10T14:51:51;7.32;;;2.65;;
56943;SDS011;42848;42.524;12.052;2023-05-10T14:54:17;7.07;;;3.22;;
56943;SDS011;42848;42.524;12.052;2023-05-10T14:56:43;8.25;;;3.22;;
56943;SDS011;42848;42.524;12.052;2023-05-10T14:59:09;7.40;;;2.90;;
56943;SDS011;42848;42.524;12.052;2023-05-10T15:01:35;6.70;;;4.28;;
56943;SDS011;42848;42.524;12.052;2023-05-10T15:04:05;6.80;;;3.10;;
56943;SDS011;42848;42.524;12.052;2023-05-10T15:06:31;6.15;;;2.50;;
56943;SDS011;42848;42.524;12.052;2023-05-10T15:08:59;5.72;;;2.40;;
56943;SDS011;42848;42.524;12.052;2023-05-10T15:11:26;6.32;;;2.50;;
56943;SDS011;42848;42.524;12.052;2023-05-10T15:13:52;8.70;;;2.92;;
56943;SDS011;42848;42.524;12.052;2023-05-10T15:16:18;10.68;;;3.15;;
56943;SDS011;42848;42.524;12.052;2023-05-10T15:18:44;8.80;;;3.38;;
56943;SDS011;42848;42.524;12.052;2023-05-10T15:21:11;10.55;;;3.35;;
56943;SDS011;42848;42.524;12.052;2023-05-10T15:23:37;9.43;;;3.20;;
56943;SDS011;42848;42.524;12.052;2023-05-10T15:26:03;13.00;;;3.75;;
56943;SDS011;42848;42.524;12.052;2023-05-10T15:28:29;11.65;;;5.00;;
56943;SDS011;42848;42.524;12.052;2023-05-10T15:30:54;12.82;;;6.20;;
56943;SDS011;42848;42.524;12.052;2023-05-10T15:33:21;13.27;;;4.00;;
56943;SDS011;42848;42.524;12.052;2023-05-10T15:35:47;10.10;;;3.50;;